sensor_id;sensor_type;location;lat;lon;timestamp;P1;durP1;ratioP1;P2;durP2;ratioP2
54171;SDS011;40076;52.354;4.970;2023-10-31T00:01:08;12.52;;;4.47;;
54171;SDS011;40076;52.354;4.970;2023-10-31T00:03:33;11.57;;;5.15;;
54171;SDS011;40076;52.354;4.970;2023-10-31T00:05:59;12.98;;;4.88;;
54171;SDS011;40076;52.354;4.970;2023-10-31T00:08:24;10.52;;;4.95;;
54171;SDS011;40076;52.354;4.970;2023-10-31T00:10:49;12.35;;;6.35;;
54171;SDS011;40076;52.354;4.970;2023-10-31T00:13:15;12.93;;;5.32;;
54171;SDS011;40076;52.354;4.970;2023-10-31T00:15:40;11.27;;;5.22;;
54171;SDS011;40076;52.354;4.970;2023-10-31T00:18:06;11.80;;;5.75;;
54171;SDS011;40076;52.354;4.970;2023-10-31T00:20:31;9.25;;;5.30;;
54171;SDS011;40076;52.354;4.970;2023-10-31T00:22:56;14.85;;;6.57;;
54171;SDS011;40076;52.354;4.970;2023-10-31T00:25:21;14.55;;;6.50;;
54171;SDS011;40076;52.354;4.970;2023-10-31T00:27:47;13.60;;;7.28;;
54171;SDS011;40076;52.354;4.970;2023-10-31T00:30:12;11.63;;;6.43;;
54171;SDS011;40076;52.354;4.970;2023-10-31T00:32:37;16.25;;;7.00;;
54171;SDS011;40076;52.354;4.970;2023-10-31T00:35:03;19.60;;;6.78;;
54171;SDS011;40076;52.354;4.970;2023-10-31T00:37:28;14.73;;;6.57;;
54171;SDS011;40076;52.354;4.970;2023-10-31T00:39:54;15.75;;;7.38;;
54171;SDS011;40076;52.354;4.970;2023-10-31T00:42:19;16.40;;;7.65;;
54171;SDS011;40076;52.354;4.970;2023-10-31T00:44:47;14.82;;;8.27;;
54171;SDS011;40076;52.354;4.970;2023-10-31T00:47:15;14.77;;;8.13;;
54171;SDS011;40076;52.354;4.970;2023-10-31T00:49:42;15.27;;;7.97;;
54171;SDS011;40076;52.354;4.970;2023-10-31T00:52:08;15.60;;;7.18;;
54171;SDS011;40076;52.354;4.970;2023-10-31T00:54:33;15.60;;;7.93;;
54171;SDS011;40076;52.354;4.970;2023-10-31T00:56:58;14.40;;;7.28;;
54171;SDS011;40076;52.354;4.970;2023-10-31T00:59:24;14.77;;;7.40;;
54171;SDS011;40076;52.354;4.970;2023-10-31T01:01:49;18.20;;;8.25;;
54171;SDS011;40076;52.354;4.970;2023-10-31T01:04:14;17.25;;;8.55;;
54171;SDS011;40076;52.354;4.970;2023-10-31T01:06:40;14.43;;;8.25;;
54171;SDS011;40076;52.354;4.970;2023-10-31T01:09:06;16.55;;;8.10;;
54171;SDS011;40076;52.354;4.970;2023-10-31T01:11:32;20.88;;;8.77;;
54171;SDS011;40076;52.354;4.970;2023-10-31T01:13:57;20.70;;;9.50;;
54171;SDS011;40076;52.354;4.970;2023-10-31T01:16:22;21.05;;;8.68;;
54171;SDS011;40076;52.354;4.970;2023-10-31T01:18:48;20.52;;;9.23;;
54171;SDS011;40076;52.354;4.970;2023-10-31T01:21:13;18.80;;;8.88;;
54171;SDS011;40076;52.354;4.970;2023-10-31T01:23:39;24.95;;;9.63;;
54171;SDS011;40076;52.354;4.970;2023-10-31T01:26:04;21.17;;;8.98;;
54171;SDS011;40076;52.354;4.970;2023-10-31T01:28:29;21.45;;;8.90;;
54171;SDS011;40076;52.354;4.970;2023-10-31T01:30:55;22.02;;;9.27;;
54171;SDS011;40076;52.354;4.970;2023-10-31T01:33:20;22.83;;;8.80;;
54171;SDS011;40076;52.354;4.970;2023-10-31T01:35:46;17.15;;;8.30;;
54171;SDS011;40076;52.354;4.970;2023-10-31T01:38:11;18.27;;;7.25;;
54171;SDS011;40076;52.354;4.970;2023-10-31T01:40:36;17.88;;;7.32;;
54171;SDS011;40076;52.354;4.970;2023-10-31T01:43:02;18.25;;;6.60;;
54171;SDS011;40076;52.354;4.970;2023-10-31T01:45:27;19.38;;;6.38;;
54171;SDS011;40076;52.354;4.970;2023-10-31T01:47:52;14.48;;;5.72;;
54171;SDS011;40076;52.354;4.970;2023-10-31T01:50:18;12.63;;;5.03;;
54171;SDS011;40076;52.354;4.970;2023-10-31T01:52:44;14.18;;;5.18;;
54171;SDS011;40076;52.354;4.970;2023-10-31T01:55:11;10.25;;;4.68;;
54171;SDS011;40076;52.354;4.970;2023-10-31T01:57:37;15.90;;;5.50;;
54171;SDS011;40076;52.354;4.970;2023-10-31T02:00:03;9.35;;;4.30;;
54171;SDS011;40076;52.354;4.970;2023-10-31T02:02:30;9.55;;;3.80;;
54171;SDS011;40076;52.354;4.970;2023-10-31T02:04:59;11.07;;;3.63;;
54171;SDS011;40076;52.354;4.970;2023-10-31T02:07:25;12.57;;;3.60;;
54171;SDS011;40076;52.354;4.970;2023-10-31T02:09:50;8.63;;;2.90;;
54171;SDS011;40076;52.354;4.970;2023-10-31T02:12:35;10.77;;;2.95;;
54171;SDS011;40076;52.354;4.970;2023-10-31T02:15:01;7.70;;;2.83;;
54171;SDS011;40076;52.354;4.970;2023-10-31T02:17:28;8.63;;;2.60;;
54171;SDS011;40076;52.354;4.970;2023-10-31T02:19:53;6.57;;;2.30;;
54171;SDS011;40076;52.354;4.970;2023-10-31T02:22:19;7.85;;;2.17;;
54171;SDS011;40076;52.354;4.970;2023-10-31T02:24:45;9.77;;;1.80;;
54171;SDS011;40076;52.354;4.970;2023-10-31T02:27:10;8.13;;;1.67;;
54171;SDS011;40076;52.354;4.970;2023-10-31T02:29:35;9.30;;;1.85;;
54171;SDS011;40076;52.354;4.970;2023-10-31T02:32:01;5.88;;;1.33;;
54171;SDS011;40076;52.354;4.970;2023-10-31T02:34:27;10.35;;;1.60;;
54171;SDS011;40076;52.354;4.970;2023-10-31T02:36:52;5.88;;;1.20;;
54171;SDS011;40076;52.354;4.970;2023-10-31T02:39:20;5.28;;;1.08;;
54171;SDS011;40076;52.354;4.970;2023-10-31T02:41:48;6.32;;;1.15;;
54171;SDS011;40076;52.354;4.970;2023-10-31T02:44:17;4.00;;;1.30;;
54171;SDS011;40076;52.354;4.970;2023-10-31T02:46:42;5.10;;;1.20;;
54171;SDS011;40076;52.354;4.970;2023-10-31T02:49:10;4.32;;;0.98;;
54171;SDS011;40076;52.354;4.970;2023-10-31T02:51:58;5.82;;;1.00;;
54171;SDS011;40076;52.354;4.970;2023-10-31T02:54:23;2.63;;;0.80;;
54171;SDS011;40076;52.354;4.970;2023-10-31T02:56:49;6.55;;;0.93;;
54171;SDS011;40076;52.354;4.970;2023-10-31T02:59:17;7.75;;;0.90;;
54171;SDS011;40076;52.354;4.970;2023-10-31T03:01:43;5.25;;;0.63;;
54171;SDS011;40076;52.354;4.970;2023-10-31T03:04:08;4.03;;;0.70;;
54171;SDS011;40076;52.354;4.970;2023-10-31T03:06:33;3.45;;;0.93;;
54171;SDS011;40076;52.354;4.970;2023-10-31T03:08:59;3.17;;;0.98;;
54171;SDS011;40076;52.354;4.970;2023-10-31T03:11:24;4.80;;;0.70;;
54171;SDS011;40076;52.354;4.970;2023-10-31T03:13:50;5.07;;;0.75;;
54171;SDS011;40076;52.354;4.970;2023-10-31T03:16:17;2.88;;;0.60;;
54171;SDS011;40076;52.354;4.970;2023-10-31T03:18:43;3.53;;;0.80;;
54171;SDS011;40076;52.354;4.970;2023-10-31T03:21:08;4.38;;;0.50;;
54171;SDS011;40076;52.354;4.970;2023-10-31T03:23:33;2.15;;;0.40;;
54171;SDS011;40076;52.354;4.970;2023-10-31T03:25:59;3.65;;;0.60;;
54171;SDS011;40076;52.354;4.970;2023-10-31T03:28:24;1.17;;;0.35;;
54171;SDS011;40076;52.354;4.970;2023-10-31T03:30:50;3.17;;;0.55;;
54171;SDS011;40076;52.354;4.970;2023-10-31T03:33:16;5.07;;;0.60;;
54171;SDS011;40076;52.354;4.970;2023-10-31T03:35:41;3.05;;;0.50;;
54171;SDS011;40076;52.354;4.970;2023-10-31T03:38:07;3.90;;;0.47;;
54171;SDS011;40076;52.354;4.970;2023-10-31T03:40:33;3.42;;;0.93;;
54171;SDS011;40076;52.354;4.970;2023-10-31T03:42:58;1.70;;;0.50;;
54171;SDS011;40076;52.354;4.970;2023-10-31T03:45:24;4.60;;;0.73;;
54171;SDS011;40076;52.354;4.970;2023-10-31T03:47:49;3.00;;;0.80;;
54171;SDS011;40076;52.354;4.970;2023-10-31T03:50:14;4.63;;;0.90;;
54171;SDS011;40076;52.354;4.970;2023-10-31T03:52:39;4.25;;;0.73;;
54171;SDS011;40076;52.354;4.970;2023-10-31T03:55:05;3.85;;;0.50;;
54171;SDS011;40076;52.354;4.970;2023-10-31T03:57:31;4.70;;;0.75;;
54171;SDS011;40076;52.354;4.970;2023-10-31T03:59:56;7.43;;;0.80;;
54171;SDS011;40076;52.354;4.970;2023-10-31T04:02:21;6.53;;;0.90;;
54171;SDS011;40076;52.354;4.970;2023-10-31T04:04:47;5.07;;;0.95;;
54171;SDS011;40076;52.354;4.970;2023-10-31T04:07:12;3.63;;;0.80;;
54171;SDS011;40076;52.354;4.970;2023-10-31T04:09:37;7.97;;;1.13;;
54171;SDS011;40076;52.354;4.970;2023-10-31T04:12:03;3.50;;;0.60;;
54171;SDS011;40076;52.354;4.970;2023-10-31T04:14:28;4.28;;;0.80;;
54171;SDS011;40076;52.354;4.970;2023-10-31T04:16:54;6.30;;;0.88;;
54171;SDS011;40076;52.354;4.970;2023-10-31T04:19:19;4.65;;;0.70;;
54171;SDS011;40076;52.354;4.970;2023-10-31T04:21:44;3.67;;;0.82;;
54171;SDS011;40076;52.354;4.970;2023-10-31T04:24:10;4.35;;;0.80;;
54171;SDS011;40076;52.354;4.970;2023-10-31T04:26:35;4.80;;;0.70;;
54171;SDS011;40076;52.354;4.970;2023-10-31T04:29:00;2.88;;;0.60;;
54171;SDS011;40076;52.354;4.970;2023-10-31T04:31:26;1.67;;;0.40;;
54171;SDS011;40076;52.354;4.970;2023-10-31T04:33:51;5.05;;;0.60;;
54171;SDS011;40076;52.354;4.970;2023-10-31T04:36:16;6.68;;;0.90;;
54171;SDS011;40076;52.354;4.970;2023-10-31T04:38:42;6.28;;;0.85;;
54171;SDS011;40076;52.354;4.970;2023-10-31T04:41:08;10.60;;;0.75;;
54171;SDS011;40076;52.354;4.970;2023-10-31T04:43:34;8.48;;;0.85;;
54171;SDS011;40076;52.354;4.970;2023-10-31T04:46:00;8.45;;;0.77;;
54171;SDS011;40076;52.354;4.970;2023-10-31T04:48:25;5.90;;;0.98;;
54171;SDS011;40076;52.354;4.970;2023-10-31T04:50:51;6.38;;;0.70;;
54171;SDS011;40076;52.354;4.970;2023-10-31T04:53:16;5.13;;;0.70;;
54171;SDS011;40076;52.354;4.970;2023-10-31T04:55:42;5.35;;;0.80;;
54171;SDS011;40076;52.354;4.970;2023-10-31T04:58:07;6.97;;;0.80;;
54171;SDS011;40076;52.354;4.970;2023-10-31T05:00:32;4.82;;;0.70;;
54171;SDS011;40076;52.354;4.970;2023-10-31T05:02:58;3.20;;;0.70;;
54171;SDS011;40076;52.354;4.970;2023-10-31T05:05:24;6.53;;;1.00;;
54171;SDS011;40076;52.354;4.970;2023-10-31T05:07:50;5.60;;;1.05;;
54171;SDS011;40076;52.354;4.970;2023-10-31T05:10:15;7.47;;;0.90;;
54171;SDS011;40076;52.354;4.970;2023-10-31T05:12:40;6.57;;;0.80;;
54171;SDS011;40076;52.354;4.970;2023-10-31T05:15:06;4.05;;;1.42;;
54171;SDS011;40076;52.354;4.970;2023-10-31T05:17:32;5.85;;;0.70;;
54171;SDS011;40076;52.354;4.970;2023-10-31T05:19:58;3.92;;;0.90;;
54171;SDS011;40076;52.354;4.970;2023-10-31T05:22:23;5.32;;;0.88;;
54171;SDS011;40076;52.354;4.970;2023-10-31T05:24:48;8.35;;;1.42;;
54171;SDS011;40076;52.354;4.970;2023-10-31T05:27:14;4.50;;;0.70;;
54171;SDS011;40076;52.354;4.970;2023-10-31T05:29:39;7.65;;;0.85;;
54171;SDS011;40076;52.354;4.970;2023-10-31T05:32:04;5.05;;;0.70;;
54171;SDS011;40076;52.354;4.970;2023-10-31T05:34:30;3.88;;;0.80;;
54171;SDS011;40076;52.354;4.970;2023-10-31T05:36:58;5.65;;;1.13;;
54171;SDS011;40076;52.354;4.970;2023-10-31T05:39:23;6.38;;;0.80;;
54171;SDS011;40076;52.354;4.970;2023-10-31T05:41:49;6.80;;;1.13;;
54171;SDS011;40076;52.354;4.970;2023-10-31T05:44:14;5.03;;;1.00;;
54171;SDS011;40076;52.354;4.970;2023-10-31T05:46:40;11.30;;;1.25;;
54171;SDS011;40076;52.354;4.970;2023-10-31T05:49:08;7.40;;;1.30;;
54171;SDS011;40076;52.354;4.970;2023-10-31T05:51:35;5.50;;;0.98;;
54171;SDS011;40076;52.354;4.970;2023-10-31T05:54:00;5.15;;;0.98;;
54171;SDS011;40076;52.354;4.970;2023-10-31T05:56:26;6.88;;;1.05;;
54171;SDS011;40076;52.354;4.970;2023-10-31T05:58:51;4.65;;;1.00;;
54171;SDS011;40076;52.354;4.970;2023-10-31T06:01:17;5.78;;;1.25;;
54171;SDS011;40076;52.354;4.970;2023-10-31T06:03:42;4.70;;;1.40;;
54171;SDS011;40076;52.354;4.970;2023-10-31T06:06:09;3.42;;;1.08;;
54171;SDS011;40076;52.354;4.970;2023-10-31T06:08:35;4.72;;;1.10;;
54171;SDS011;40076;52.354;4.970;2023-10-31T06:11:00;5.15;;;1.42;;
54171;SDS011;40076;52.354;4.970;2023-10-31T06:13:25;6.30;;;1.30;;
54171;SDS011;40076;52.354;4.970;2023-10-31T06:15:53;7.63;;;1.20;;
54171;SDS011;40076;52.354;4.970;2023-10-31T06:18:19;6.28;;;1.08;;
54171;SDS011;40076;52.354;4.970;2023-10-31T06:20:45;4.22;;;1.00;;
54171;SDS011;40076;52.354;4.970;2023-10-31T06:23:10;8.00;;;1.10;;
54171;SDS011;40076;52.354;4.970;2023-10-31T06:25:36;9.90;;;2.15;;
54171;SDS011;40076;52.354;4.970;2023-10-31T06:28:01;8.48;;;1.25;;
54171;SDS011;40076;52.354;4.970;2023-10-31T06:30:27;5.40;;;1.45;;
54171;SDS011;40076;52.354;4.970;2023-10-31T06:32:55;8.20;;;1.27;;
54171;SDS011;40076;52.354;4.970;2023-10-31T06:35:22;3.55;;;1.30;;
54171;SDS011;40076;52.354;4.970;2023-10-31T06:37:49;11.23;;;1.90;;
54171;SDS011;40076;52.354;4.970;2023-10-31T06:40:15;9.77;;;2.05;;
54171;SDS011;40076;52.354;4.970;2023-10-31T06:42:40;8.45;;;2.17;;
54171;SDS011;40076;52.354;4.970;2023-10-31T06:45:06;10.38;;;2.58;;
54171;SDS011;40076;52.354;4.970;2023-10-31T06:47:32;7.80;;;3.33;;
54171;SDS011;40076;52.354;4.970;2023-10-31T06:49:57;10.02;;;3.83;;
54171;SDS011;40076;52.354;4.970;2023-10-31T06:52:23;10.48;;;4.50;;
54171;SDS011;40076;52.354;4.970;2023-10-31T06:54:50;10.93;;;5.10;;
54171;SDS011;40076;52.354;4.970;2023-10-31T06:57:16;11.85;;;5.63;;
54171;SDS011;40076;52.354;4.970;2023-10-31T06:59:41;15.15;;;6.60;;
54171;SDS011;40076;52.354;4.970;2023-10-31T07:02:07;14.15;;;8.40;;
54171;SDS011;40076;52.354;4.970;2023-10-31T07:04:32;20.38;;;11.27;;
54171;SDS011;40076;52.354;4.970;2023-10-31T07:06:58;15.15;;;11.07;;
54171;SDS011;40076;52.354;4.970;2023-10-31T07:09:26;22.15;;;11.80;;
54171;SDS011;40076;52.354;4.970;2023-10-31T07:11:52;15.00;;;11.73;;
54171;SDS011;40076;52.354;4.970;2023-10-31T07:14:17;24.10;;;12.32;;
54171;SDS011;40076;52.354;4.970;2023-10-31T07:16:43;18.83;;;12.85;;
54171;SDS011;40076;52.354;4.970;2023-10-31T07:19:12;22.35;;;13.68;;
54171;SDS011;40076;52.354;4.970;2023-10-31T07:21:37;17.92;;;12.82;;
54171;SDS011;40076;52.354;4.970;2023-10-31T07:24:03;21.98;;;12.73;;
54171;SDS011;40076;52.354;4.970;2023-10-31T07:26:28;19.35;;;12.52;;
54171;SDS011;40076;52.354;4.970;2023-10-31T07:28:54;19.98;;;12.55;;
54171;SDS011;40076;52.354;4.970;2023-10-31T07:31:19;21.45;;;11.38;;
54171;SDS011;40076;52.354;4.970;2023-10-31T07:33:45;18.55;;;11.60;;
54171;SDS011;40076;52.354;4.970;2023-10-31T07:36:10;17.60;;;11.43;;
54171;SDS011;40076;52.354;4.970;2023-10-31T07:38:36;23.00;;;11.88;;
54171;SDS011;40076;52.354;4.970;2023-10-31T07:41:01;15.68;;;11.75;;
54171;SDS011;40076;52.354;4.970;2023-10-31T07:43:27;19.73;;;11.35;;
54171;SDS011;40076;52.354;4.970;2023-10-31T07:45:52;19.85;;;11.07;;
54171;SDS011;40076;52.354;4.970;2023-10-31T07:48:18;18.05;;;10.95;;
54171;SDS011;40076;52.354;4.970;2023-10-31T07:50:43;16.42;;;10.20;;
54171;SDS011;40076;52.354;4.970;2023-10-31T07:53:09;17.45;;;10.07;;
54171;SDS011;40076;52.354;4.970;2023-10-31T07:55:34;17.63;;;9.93;;
54171;SDS011;40076;52.354;4.970;2023-10-31T07:57:59;18.42;;;9.30;;
54171;SDS011;40076;52.354;4.970;2023-10-31T08:00:24;18.92;;;10.48;;
54171;SDS011;40076;52.354;4.970;2023-10-31T08:02:50;15.45;;;10.40;;
54171;SDS011;40076;52.354;4.970;2023-10-31T08:05:15;19.17;;;9.70;;
54171;SDS011;40076;52.354;4.970;2023-10-31T08:07:40;19.42;;;9.38;;
54171;SDS011;40076;52.354;4.970;2023-10-31T08:10:06;13.60;;;8.18;;
54171;SDS011;40076;52.354;4.970;2023-10-31T08:12:32;11.30;;;6.25;;
54171;SDS011;40076;52.354;4.970;2023-10-31T08:14:57;11.40;;;6.18;;
54171;SDS011;40076;52.354;4.970;2023-10-31T08:17:23;10.32;;;6.00;;
54171;SDS011;40076;52.354;4.970;2023-10-31T08:19:49;10.02;;;4.80;;
54171;SDS011;40076;52.354;4.970;2023-10-31T08:22:14;12.25;;;4.20;;
54171;SDS011;40076;52.354;4.970;2023-10-31T08:24:39;8.95;;;3.53;;
54171;SDS011;40076;52.354;4.970;2023-10-31T08:27:05;12.88;;;4.28;;
54171;SDS011;40076;52.354;4.970;2023-10-31T08:29:30;9.82;;;3.60;;
54171;SDS011;40076;52.354;4.970;2023-10-31T08:31:56;10.52;;;3.83;;
54171;SDS011;40076;52.354;4.970;2023-10-31T08:34:21;11.52;;;3.25;;
54171;SDS011;40076;52.354;4.970;2023-10-31T08:36:46;10.23;;;3.22;;
54171;SDS011;40076;52.354;4.970;2023-10-31T08:39:12;9.30;;;3.55;;
54171;SDS011;40076;52.354;4.970;2023-10-31T08:41:37;11.82;;;2.97;;
54171;SDS011;40076;52.354;4.970;2023-10-31T08:44:17;7.07;;;2.63;;
54171;SDS011;40076;52.354;4.970;2023-10-31T08:46:42;9.65;;;3.30;;
54171;SDS011;40076;52.354;4.970;2023-10-31T08:49:08;7.70;;;2.95;;
54171;SDS011;40076;52.354;4.970;2023-10-31T08:51:33;9.63;;;3.25;;
54171;SDS011;40076;52.354;4.970;2023-10-31T08:53:58;9.32;;;3.10;;
54171;SDS011;40076;52.354;4.970;2023-10-31T08:56:24;13.70;;;3.58;;
54171;SDS011;40076;52.354;4.970;2023-10-31T08:58:49;9.65;;;2.95;;
54171;SDS011;40076;52.354;4.970;2023-10-31T09:01:14;9.57;;;2.92;;
54171;SDS011;40076;52.354;4.970;2023-10-31T09:03:40;8.95;;;2.95;;
54171;SDS011;40076;52.354;4.970;2023-10-31T09:06:05;8.95;;;3.13;;
54171;SDS011;40076;52.354;4.970;2023-10-31T09:08:30;8.30;;;2.55;;
54171;SDS011;40076;52.354;4.970;2023-10-31T09:10:56;13.20;;;3.10;;
54171;SDS011;40076;52.354;4.970;2023-10-31T09:13:21;11.90;;;2.80;;
54171;SDS011;40076;52.354;4.970;2023-10-31T09:15:47;9.95;;;2.53;;
54171;SDS011;40076;52.354;4.970;2023-10-31T09:18:14;12.48;;;2.65;;
54171;SDS011;40076;52.354;4.970;2023-10-31T09:20:40;10.38;;;2.70;;
54171;SDS011;40076;52.354;4.970;2023-10-31T09:23:05;6.93;;;2.53;;
54171;SDS011;40076;52.354;4.970;2023-10-31T09:25:30;9.68;;;2.60;;
54171;SDS011;40076;52.354;4.970;2023-10-31T09:27:57;8.98;;;2.15;;
54171;SDS011;40076;52.354;4.970;2023-10-31T09:30:24;9.13;;;2.45;;
54171;SDS011;40076;52.354;4.970;2023-10-31T09:32:49;7.40;;;2.05;;
54171;SDS011;40076;52.354;4.970;2023-10-31T09:35:15;6.70;;;2.33;;
54171;SDS011;40076;52.354;4.970;2023-10-31T09:37:40;11.40;;;2.33;;
54171;SDS011;40076;52.354;4.970;2023-10-31T09:40:08;14.32;;;2.30;;
54171;SDS011;40076;52.354;4.970;2023-10-31T09:42:37;9.65;;;2.22;;
54171;SDS011;40076;52.354;4.970;2023-10-31T09:45:03;6.90;;;2.05;;
54171;SDS011;40076;52.354;4.970;2023-10-31T09:47:33;6.07;;;1.58;;
54171;SDS011;40076;52.354;4.970;2023-10-31T09:49:59;9.88;;;1.77;;
54171;SDS011;40076;52.354;4.970;2023-10-31T09:52:24;8.63;;;1.70;;
54171;SDS011;40076;52.354;4.970;2023-10-31T09:54:50;6.55;;;1.50;;
54171;SDS011;40076;52.354;4.970;2023-10-31T09:57:17;8.13;;;1.58;;
54171;SDS011;40076;52.354;4.970;2023-10-31T09:59:43;3.53;;;1.40;;
54171;SDS011;40076;52.354;4.970;2023-10-31T10:02:08;5.60;;;1.60;;
54171;SDS011;40076;52.354;4.970;2023-10-31T10:04:34;6.00;;;1.55;;
54171;SDS011;40076;52.354;4.970;2023-10-31T10:07:01;5.95;;;1.58;;
54171;SDS011;40076;52.354;4.970;2023-10-31T10:09:28;10.45;;;1.80;;
54171;SDS011;40076;52.354;4.970;2023-10-31T10:11:53;5.70;;;1.88;;
54171;SDS011;40076;52.354;4.970;2023-10-31T10:14:20;5.85;;;1.70;;
54171;SDS011;40076;52.354;4.970;2023-10-31T10:16:51;8.00;;;2.08;;
54171;SDS011;40076;52.354;4.970;2023-10-31T10:19:17;5.80;;;2.00;;
54171;SDS011;40076;52.354;4.970;2023-10-31T10:21:57;7.57;;;1.88;;
54171;SDS011;40076;52.354;4.970;2023-10-31T10:24:26;4.18;;;1.63;;
54171;SDS011;40076;52.354;4.970;2023-10-31T10:26:52;5.95;;;1.63;;
54171;SDS011;40076;52.354;4.970;2023-10-31T10:29:17;6.20;;;1.70;;
54171;SDS011;40076;52.354;4.970;2023-10-31T10:31:43;12.13;;;2.05;;
54171;SDS011;40076;52.354;4.970;2023-10-31T10:34:09;4.18;;;1.60;;
54171;SDS011;40076;52.354;4.970;2023-10-31T10:36:35;8.20;;;2.03;;
54171;SDS011;40076;52.354;4.970;2023-10-31T10:39:01;5.43;;;1.40;;
54171;SDS011;40076;52.354;4.970;2023-10-31T10:41:28;6.45;;;1.67;;
54171;SDS011;40076;52.354;4.970;2023-10-31T10:43:55;4.35;;;1.30;;
54171;SDS011;40076;52.354;4.970;2023-10-31T10:46:26;5.60;;;1.35;;
54171;SDS011;40076;52.354;4.970;2023-10-31T10:48:55;12.05;;;2.15;;
54171;SDS011;40076;52.354;4.970;2023-10-31T10:54:53;5.30;;;1.70;;
54171;SDS011;40076;52.354;4.970;2023-10-31T10:58:00;9.73;;;1.90;;
54171;SDS011;40076;52.354;4.970;2023-10-31T11:01:00;6.13;;;1.95;;
54171;SDS011;40076;52.354;4.970;2023-10-31T11:03:43;7.22;;;2.55;;
54171;SDS011;40076;52.354;4.970;2023-10-31T11:06:17;7.17;;;2.47;;
54171;SDS011;40076;52.354;4.970;2023-10-31T11:08:49;7.85;;;1.98;;
54171;SDS011;40076;52.354;4.970;2023-10-31T11:11:20;9.45;;;2.10;;
54171;SDS011;40076;52.354;4.970;2023-10-31T11:13:58;5.85;;;1.80;;
54171;SDS011;40076;52.354;4.970;2023-10-31T11:16:48;6.18;;;2.08;;
54171;SDS011;40076;52.354;4.970;2023-10-31T11:19:27;6.97;;;2.00;;
54171;SDS011;40076;52.354;4.970;2023-10-31T11:22:09;6.10;;;1.80;;
54171;SDS011;40076;52.354;4.970;2023-10-31T11:24:45;6.18;;;1.02;;
54171;SDS011;40076;52.354;4.970;2023-10-31T11:30:04;1.80;;;0.40;;
54171;SDS011;40076;52.354;4.970;2023-10-31T11:32:49;4.10;;;0.70;;
54171;SDS011;40076;52.354;4.970;2023-10-31T11:35:17;4.80;;;0.73;;
54171;SDS011;40076;52.354;4.970;2023-10-31T11:37:49;8.73;;;1.25;;
54171;SDS011;40076;52.354;4.970;2023-10-31T11:40:26;14.70;;;1.38;;
54171;SDS011;40076;52.354;4.970;2023-10-31T11:42:53;3.50;;;0.52;;
54171;SDS011;40076;52.354;4.970;2023-10-31T11:45:35;3.20;;;0.68;;
54171;SDS011;40076;52.354;4.970;2023-10-31T11:48:05;5.70;;;0.90;;
54171;SDS011;40076;52.354;4.970;2023-10-31T11:50:31;4.25;;;0.77;;
54171;SDS011;40076;52.354;4.970;2023-10-31T11:53:10;7.05;;;1.70;;
54171;SDS011;40076;52.354;4.970;2023-10-31T11:55:55;3.10;;;0.60;;
54171;SDS011;40076;52.354;4.970;2023-10-31T11:58:22;3.90;;;0.90;;
54171;SDS011;40076;52.354;4.970;2023-10-31T12:00:50;6.72;;;0.70;;
54171;SDS011;40076;52.354;4.970;2023-10-31T12:03:40;4.57;;;0.88;;
54171;SDS011;40076;52.354;4.970;2023-10-31T12:06:13;4.03;;;0.95;;
54171;SDS011;40076;52.354;4.970;2023-10-31T12:08:40;6.22;;;0.95;;
54171;SDS011;40076;52.354;4.970;2023-10-31T12:11:10;2.55;;;0.70;;
54171;SDS011;40076;52.354;4.970;2023-10-31T12:13:57;5.18;;;1.30;;
54171;SDS011;40076;52.354;4.970;2023-10-31T12:16:24;6.63;;;1.25;;
54171;SDS011;40076;52.354;4.970;2023-10-31T12:18:58;3.33;;;0.60;;
54171;SDS011;40076;52.354;4.970;2023-10-31T12:21:42;3.75;;;0.90;;
54171;SDS011;40076;52.354;4.970;2023-10-31T12:24:12;4.50;;;1.42;;
54171;SDS011;40076;52.354;4.970;2023-10-31T12:26:42;5.88;;;0.80;;
54171;SDS011;40076;52.354;4.970;2023-10-31T12:29:15;4.55;;;0.70;;
54171;SDS011;40076;52.354;4.970;2023-10-31T12:31:45;5.15;;;1.17;;
54171;SDS011;40076;52.354;4.970;2023-10-31T12:34:13;4.38;;;0.80;;
54171;SDS011;40076;52.354;4.970;2023-10-31T12:36:41;3.15;;;0.73;;
54171;SDS011;40076;52.354;4.970;2023-10-31T12:39:10;5.70;;;1.33;;
54171;SDS011;40076;52.354;4.970;2023-10-31T12:41:37;4.75;;;0.82;;
54171;SDS011;40076;52.354;4.970;2023-10-31T12:44:07;6.05;;;0.55;;
54171;SDS011;40076;52.354;4.970;2023-10-31T12:46:38;2.70;;;1.00;;
54171;SDS011;40076;52.354;4.970;2023-10-31T12:49:12;3.72;;;0.80;;
54171;SDS011;40076;52.354;4.970;2023-10-31T12:51:54;4.90;;;0.82;;
54171;SDS011;40076;52.354;4.970;2023-10-31T12:54:35;7.10;;;1.30;;
54171;SDS011;40076;52.354;4.970;2023-10-31T12:57:08;7.28;;;1.40;;
54171;SDS011;40076;52.354;4.970;2023-10-31T12:59:39;7.85;;;1.83;;
54171;SDS011;40076;52.354;4.970;2023-10-31T13:02:04;7.47;;;1.02;;
54171;SDS011;40076;52.354;4.970;2023-10-31T13:04:31;8.32;;;2.20;;
54171;SDS011;40076;52.354;4.970;2023-10-31T13:07:01;9.38;;;2.22;;
54171;SDS011;40076;52.354;4.970;2023-10-31T13:09:34;10.02;;;2.75;;
54171;SDS011;40076;52.354;4.970;2023-10-31T13:12:03;8.20;;;2.65;;
54171;SDS011;40076;52.354;4.970;2023-10-31T13:14:45;12.38;;;3.00;;
54171;SDS011;40076;52.354;4.970;2023-10-31T13:17:11;10.82;;;2.45;;
54171;SDS011;40076;52.354;4.970;2023-10-31T13:19:37;8.73;;;2.47;;
54171;SDS011;40076;52.354;4.970;2023-10-31T13:22:02;12.35;;;2.90;;
54171;SDS011;40076;52.354;4.970;2023-10-31T13:24:30;11.23;;;2.70;;
54171;SDS011;40076;52.354;4.970;2023-10-31T13:26:59;6.28;;;1.70;;
54171;SDS011;40076;52.354;4.970;2023-10-31T13:29:27;4.28;;;1.10;;
54171;SDS011;40076;52.354;4.970;2023-10-31T13:31:56;6.32;;;1.30;;
54171;SDS011;40076;52.354;4.970;2023-10-31T13:34:24;4.22;;;1.02;;
54171;SDS011;40076;52.354;4.970;2023-10-31T13:36:50;6.88;;;1.55;;
54171;SDS011;40076;52.354;4.970;2023-10-31T13:39:16;5.80;;;1.50;;
54171;SDS011;40076;52.354;4.970;2023-10-31T13:41:43;5.63;;;1.45;;
54171;SDS011;40076;52.354;4.970;2023-10-31T13:44:08;3.85;;;1.50;;
54171;SDS011;40076;52.354;4.970;2023-10-31T13:46:37;5.55;;;1.40;;
54171;SDS011;40076;52.354;4.970;2023-10-31T13:49:02;4.00;;;1.27;;
54171;SDS011;40076;52.354;4.970;2023-10-31T13:51:38;5.53;;;1.40;;
54171;SDS011;40076;52.354;4.970;2023-10-31T13:54:04;5.82;;;1.73;;
54171;SDS011;40076;52.354;4.970;2023-10-31T13:56:32;5.57;;;2.00;;
54171;SDS011;40076;52.354;4.970;2023-10-31T13:59:00;6.63;;;1.77;;
54171;SDS011;40076;52.354;4.970;2023-10-31T14:01:28;8.57;;;2.72;;
54171;SDS011;40076;52.354;4.970;2023-10-31T14:04:01;6.90;;;2.75;;
54171;SDS011;40076;52.354;4.970;2023-10-31T14:06:27;8.20;;;3.53;;
54171;SDS011;40076;52.354;4.970;2023-10-31T14:09:02;8.63;;;4.15;;
54171;SDS011;40076;52.354;4.970;2023-10-31T14:11:30;13.23;;;5.32;;
54171;SDS011;40076;52.354;4.970;2023-10-31T14:13:56;9.85;;;5.60;;
54171;SDS011;40076;52.354;4.970;2023-10-31T14:16:27;10.45;;;5.25;;
54171;SDS011;40076;52.354;4.970;2023-10-31T14:19:26;12.02;;;6.18;;
54171;SDS011;40076;52.354;4.970;2023-10-31T14:21:54;7.47;;;2.95;;
54171;SDS011;40076;52.354;4.970;2023-10-31T14:24:22;8.05;;;2.72;;
54171;SDS011;40076;52.354;4.970;2023-10-31T14:26:48;7.80;;;2.42;;
54171;SDS011;40076;52.354;4.970;2023-10-31T14:29:14;9.40;;;2.42;;
54171;SDS011;40076;52.354;4.970;2023-10-31T14:31:40;7.05;;;2.10;;
54171;SDS011;40076;52.354;4.970;2023-10-31T14:34:06;8.43;;;2.35;;
54171;SDS011;40076;52.354;4.970;2023-10-31T14:36:32;11.30;;;2.25;;
54171;SDS011;40076;52.354;4.970;2023-10-31T14:39:04;6.40;;;1.80;;
54171;SDS011;40076;52.354;4.970;2023-10-31T14:41:30;6.72;;;1.77;;
54171;SDS011;40076;52.354;4.970;2023-10-31T14:43:58;7.60;;;2.47;;
54171;SDS011;40076;52.354;4.970;2023-10-31T14:46:37;8.70;;;2.70;;
54171;SDS011;40076;52.354;4.970;2023-10-31T14:49:02;9.32;;;3.25;;
54171;SDS011;40076;52.354;4.970;2023-10-31T14:51:30;8.52;;;2.95;;